sensor_id;sensor_type;location;lat;lon;timestamp;pressure;altitude;pressure_sealevel;temperature;humidity
12349;BME280;5974;42.710;27.258;2023-04-07T00:01:49;99920.72;;;8.21;82.75
12349;BME280;5974;42.710;27.258;2023-04-07T00:04:16;99920.09;;;7.61;85.33
12349;BME280;5974;42.710;27.258;2023-04-07T00:06:43;99928.44;;;7.97;81.09
12349;BME280;5974;42.710;27.258;2023-04-07T00:09:12;99930.66;;;8.09;79.74
12349;BME280;5974;42.710;27.258;2023-04-07T00:11:38;99919.19;;;8.15;80.72
12349;BME280;5974;42.710;27.258;2023-04-07T00:14:05;99926.94;;;7.64;76.99
12349;BME280;5974;42.710;27.258;2023-04-07T00:16:33;99920.13;;;8.39;73.64
12349;BME280;5974;42.710;27.258;2023-04-07T00:18:59;99923.47;;;8.42;72.49
12349;BME280;5974;42.710;27.258;2023-04-07T00:21:26;99923.34;;;7.94;73.18
12349;BME280;5974;42.710;27.258;2023-04-07T00:23:53;99918.22;;;7.93;76.29
12349;BME280;5974;42.710;27.258;2023-04-07T00:26:22;99919.19;;;8.15;73.59
12349;BME280;5974;42.710;27.258;2023-04-07T00:28:51;99911.81;;;8.28;71.55
12349;BME280;5974;42.710;27.258;2023-04-07T00:31:18;99911.56;;;8.35;72.28
12349;BME280;5974;42.710;27.258;2023-04-07T00:33:45;99916.13;;;8.53;72.38
12349;BME280;5974;42.710;27.258;2023-04-07T00:36:13;99910.28;;;8.47;73.45
12349;BME280;5974;42.710;27.258;2023-04-07T00:38:41;99910.63;;;7.85;74.80
12349;BME280;5974;42.710;27.258;2023-04-07T00:41:08;99919.13;;;8.16;74.57
12349;BME280;5974;42.710;27.258;2023-04-07T00:43:36;99923.13;;;8.00;76.17
12349;BME280;5974;42.710;27.258;2023-04-07T00:46:03;99915.56;;;8.19;77.44
12349;BME280;5974;42.710;27.258;2023-04-07T00:48:30;99910.44;;;7.91;77.88
12349;BME280;5974;42.710;27.258;2023-04-07T00:50:57;99917.22;;;8.22;76.17
12349;BME280;5974;42.710;27.258;2023-04-07T00:53:24;99928.38;;;8.25;75.68
12349;BME280;5974;42.710;27.258;2023-04-07T00:55:51;99921.84;;;7.61;82.68
12349;BME280;5974;42.710;27.258;2023-04-07T00:58:18;99923.53;;;7.88;84.21
12349;BME280;5974;42.710;27.258;2023-04-07T01:00:53;99913.84;;;7.93;83.22
12349;BME280;5974;42.710;27.258;2023-04-07T01:03:27;99918.50;;;7.84;85.56
12349;BME280;5974;42.710;27.258;2023-04-07T01:05:59;99926.69;;;6.87;87.46
12349;BME280;5974;42.710;27.258;2023-04-07T01:08:31;99927.81;;;7.07;86.94
12349;BME280;5974;42.710;27.258;2023-04-07T01:11:03;99931.88;;;7.45;87.73
12349;BME280;5974;42.710;27.258;2023-04-07T01:13:35;99931.28;;;7.36;89.38
12349;BME280;5974;42.710;27.258;2023-04-07T01:16:14;99929.06;;;7.24;93.78
12349;BME280;5974;42.710;27.258;2023-04-07T01:18:43;99925.31;;;6.75;97.50
12349;BME280;5974;42.710;27.258;2023-04-07T01:21:13;99924.97;;;7.44;93.32
12349;BME280;5974;42.710;27.258;2023-04-07T01:23:51;99928.41;;;7.73;87.64
12349;BME280;5974;42.710;27.258;2023-04-07T01:26:28;99924.69;;;7.53;86.65
12349;BME280;5974;42.710;27.258;2023-04-07T01:29:06;99927.50;;;7.74;80.92
12349;BME280;5974;42.710;27.258;2023-04-07T01:31:39;99923.75;;;6.99;82.28
12349;BME280;5974;42.710;27.258;2023-04-07T01:34:09;99924.25;;;7.39;81.00
12349;BME280;5974;42.710;27.258;2023-04-07T01:36:36;99936.97;;;7.76;79.72
12349;BME280;5974;42.710;27.258;2023-04-07T01:39:04;99931.16;;;7.68;77.22
12349;BME280;5974;42.710;27.258;2023-04-07T01:41:32;99935.22;;;7.77;76.31
12349;BME280;5974;42.710;27.258;2023-04-07T01:44:00;99931.06;;;7.71;74.45
12349;BME280;5974;42.710;27.258;2023-04-07T01:46:27;99929.81;;;7.83;73.43
12349;BME280;5974;42.710;27.258;2023-04-07T01:48:57;99924.56;;;7.84;72.75
12349;BME280;5974;42.710;27.258;2023-04-07T01:51:25;99935.00;;;7.56;73.55
12349;BME280;5974;42.710;27.258;2023-04-07T01:53:54;99937.31;;;7.66;73.86
12349;BME280;5974;42.710;27.258;2023-04-07T01:56:21;99933.84;;;7.65;72.81
12349;BME280;5974;42.710;27.258;2023-04-07T01:58:48;99938.44;;;7.57;72.14
12349;BME280;5974;42.710;27.258;2023-04-07T02:01:15;99943.81;;;7.51;72.38
12349;BME280;5974;42.710;27.258;2023-04-07T02:03:45;99939.94;;;7.64;72.44
12349;BME280;5974;42.710;27.258;2023-04-07T02:06:19;99936.66;;;7.59;72.63
12349;BME280;5974;42.710;27.258;2023-04-07T02:08:50;99936.03;;;7.51;72.98
12349;BME280;5974;42.710;27.258;2023-04-07T02:11:20;99935.13;;;7.52;73.12
12349;BME280;5974;42.710;27.258;2023-04-07T02:13:48;99938.09;;;7.68;72.74
12349;BME280;5974;42.710;27.258;2023-04-07T02:16:17;99942.56;;;7.64;73.14
12349;BME280;5974;42.710;27.258;2023-04-07T02:18:46;99939.06;;;7.65;73.12
12349;BME280;5974;42.710;27.258;2023-04-07T02:21:16;99940.16;;;7.58;73.22
12349;BME280;5974;42.710;27.258;2023-04-07T02:23:43;99933.19;;;7.31;73.48
12349;BME280;5974;42.710;27.258;2023-04-07T02:26:12;99933.00;;;7.37;73.90
12349;BME280;5974;42.710;27.258;2023-04-07T02:28:39;99928.69;;;7.36;73.45
12349;BME280;5974;42.710;27.258;2023-04-07T02:31:06;99936.28;;;7.43;73.61
12349;BME280;5974;42.710;27.258;2023-04-07T02:33:33;99928.47;;;7.16;74.07
12349;BME280;5974;42.710;27.258;2023-04-07T02:35:59;99933.75;;;7.13;74.33
12349;BME280;5974;42.710;27.258;2023-04-07T02:38:28;99932.78;;;7.15;74.40
12349;BME280;5974;42.710;27.258;2023-04-07T02:40:55;99934.78;;;7.07;74.35
12349;BME280;5974;42.710;27.258;2023-04-07T02:43:23;99930.78;;;6.95;73.95
12349;BME280;5974;42.710;27.258;2023-04-07T02:45:50;99938.09;;;7.12;73.74
12349;BME280;5974;42.710;27.258;2023-04-07T02:48:17;99939.75;;;7.15;73.11
12349;BME280;5974;42.710;27.258;2023-04-07T02:50:43;99940.88;;;7.06;73.41
12349;BME280;5974;42.710;27.258;2023-04-07T02:53:10;99939.34;;;7.28;73.17
12349;BME280;5974;42.710;27.258;2023-04-07T02:55:39;99950.34;;;7.36;73.47
12349;BME280;5974;42.710;27.258;2023-04-07T02:58:05;99946.91;;;7.36;74.37
12349;BME280;5974;42.710;27.258;2023-04-07T03:00:34;99952.66;;;7.47;74.50
12349;BME280;5974;42.710;27.258;2023-04-07T03:03:01;99955.25;;;7.47;73.85
12349;BME280;5974;42.710;27.258;2023-04-07T03:05:27;99958.50;;;7.53;73.72
12349;BME280;5974;42.710;27.258;2023-04-07T03:07:54;99961.75;;;7.60;72.90
12349;BME280;5974;42.710;27.258;2023-04-07T03:10:21;99951.69;;;7.20;74.46
12349;BME280;5974;42.710;27.258;2023-04-07T03:12:49;99960.25;;;7.53;73.29
12349;BME280;5974;42.710;27.258;2023-04-07T03:15:16;99960.16;;;7.56;72.10
12349;BME280;5974;42.710;27.258;2023-04-07T03:17:43;99958.44;;;7.27;73.77
12349;BME280;5974;42.710;27.258;2023-04-07T03:20:10;99963.56;;;7.58;73.61
12349;BME280;5974;42.710;27.258;2023-04-07T03:22:37;99965.38;;;7.56;73.14
12349;BME280;5974;42.710;27.258;2023-04-07T03:25:04;99970.59;;;7.82;72.25
12349;BME280;5974;42.710;27.258;2023-04-07T03:27:32;99967.84;;;7.87;72.44
12349;BME280;5974;42.710;27.258;2023-04-07T03:30:00;99967.00;;;7.86;72.02
12349;BME280;5974;42.710;27.258;2023-04-07T03:32:27;99975.38;;;7.68;72.22
12349;BME280;5974;42.710;27.258;2023-04-07T03:34:54;99977.72;;;7.48;74.79
12349;BME280;5974;42.710;27.258;2023-04-07T03:37:21;99978.41;;;6.96;77.79
12349;BME280;5974;42.710;27.258;2023-04-07T03:39:48;99990.59;;;7.25;79.05
12349;BME280;5974;42.710;27.258;2023-04-07T03:42:15;99985.00;;;7.07;80.68
12349;BME280;5974;42.710;27.258;2023-04-07T03:44:42;99993.91;;;7.57;78.17
12349;BME280;5974;42.710;27.258;2023-04-07T03:47:10;99992.78;;;7.66;74.28
12349;BME280;5974;42.710;27.258;2023-04-07T03:49:37;99994.28;;;7.45;73.60
12349;BME280;5974;42.710;27.258;2023-04-07T03:52:04;99992.84;;;7.35;75.11
12349;BME280;5974;42.710;27.258;2023-04-07T03:54:31;99999.41;;;7.48;72.89
12349;BME280;5974;42.710;27.258;2023-04-07T03:56:59;99998.25;;;7.57;73.74
12349;BME280;5974;42.710;27.258;2023-04-07T03:59:26;99999.69;;;7.67;75.17
12349;BME280;5974;42.710;27.258;2023-04-07T04:01:53;100002.84;;;7.78;74.43
12349;BME280;5974;42.710;27.258;2023-04-07T04:04:22;100007.47;;;7.69;73.35
12349;BME280;5974;42.710;27.258;2023-04-07T04:06:49;100012.97;;;7.58;74.11
12349;BME280;5974;42.710;27.258;2023-04-07T04:09:17;100017.28;;;7.59;74.28
12349;BME280;5974;42.710;27.258;2023-04-07T04:11:43;100020.84;;;7.56;74.78
12349;BME280;5974;42.710;27.258;2023-04-07T04:14:10;100019.72;;;7.36;72.57
12349;BME280;5974;42.710;27.258;2023-04-07T04:16:37;100020.34;;;7.44;72.88
12349;BME280;5974;42.710;27.258;2023-04-07T04:19:04;100016.44;;;7.29;73.32
12349;BME280;5974;42.710;27.258;2023-04-07T04:21:32;100016.03;;;7.43;73.43
12349;BME280;5974;42.710;27.258;2023-04-07T04:23:59;100015.28;;;7.39;73.14
12349;BME280;5974;42.710;27.258;2023-04-07T04:26:26;100012.47;;;7.47;72.91
12349;BME280;5974;42.710;27.258;2023-04-07T04:28:54;100010.84;;;7.43;73.23
12349;BME280;5974;42.710;27.258;2023-04-07T04:31:21;100019.25;;;7.51;72.12
12349;BME280;5974;42.710;27.258;2023-04-07T04:33:47;100024.09;;;7.63;73.17
12349;BME280;5974;42.710;27.258;2023-04-07T04:36:14;100019.19;;;7.82;73.14
12349;BME280;5974;42.710;27.258;2023-04-07T04:38:43;100017.53;;;7.79;72.76
12349;BME280;5974;42.710;27.258;2023-04-07T04:41:09;100032.53;;;7.99;72.40
12349;BME280;5974;42.710;27.258;2023-04-07T04:43:36;99996.00;;;8.02;72.07
12349;BME280;5974;42.710;27.258;2023-04-07T04:46:03;100024.31;;;8.39;71.34
12349;BME280;5974;42.710;27.258;2023-04-07T04:48:30;100034.34;;;8.51;70.27
12349;BME280;5974;42.710;27.258;2023-04-07T04:50:57;100041.09;;;8.56;69.55
12349;BME280;5974;42.710;27.258;2023-04-07T04:53:24;100040.31;;;8.54;69.57
12349;BME280;5974;42.710;27.258;2023-04-07T04:55:52;100042.41;;;8.68;69.36
12349;BME280;5974;42.710;27.258;2023-04-07T04:58:20;100049.00;;;8.53;69.36
12349;BME280;5974;42.710;27.258;2023-04-07T05:00:47;100047.38;;;8.51;68.57
12349;BME280;5974;42.710;27.258;2023-04-07T05:03:14;100056.44;;;8.39;69.86
12349;BME280;5974;42.710;27.258;2023-04-07T05:05:41;100061.25;;;8.51;69.25
12349;BME280;5974;42.710;27.258;2023-04-07T05:08:10;100054.91;;;8.58;68.05
12349;BME280;5974;42.710;27.258;2023-04-07T05:10:37;100063.22;;;8.69;67.69
12349;BME280;5974;42.710;27.258;2023-04-07T05:13:07;100068.28;;;8.74;66.83
12349;BME280;5974;42.710;27.258;2023-04-07T05:15:34;100071.28;;;8.88;66.84
12349;BME280;5974;42.710;27.258;2023-04-07T05:18:01;100070.34;;;8.89;67.39
12349;BME280;5974;42.710;27.258;2023-04-07T05:20:28;100075.56;;;8.89;66.96
12349;BME280;5974;42.710;27.258;2023-04-07T05:22:54;100058.91;;;8.68;66.81
12349;BME280;5974;42.710;27.258;2023-04-07T05:25:21;100077.38;;;8.87;67.36
12349;BME280;5974;42.710;27.258;2023-04-07T05:27:49;100086.84;;;9.14;66.52
12349;BME280;5974;42.710;27.258;2023-04-07T05:30:17;100078.38;;;9.33;65.23
12349;BME280;5974;42.710;27.258;2023-04-07T05:32:44;100087.56;;;9.19;65.39
12349;BME280;5974;42.710;27.258;2023-04-07T05:35:11;100062.22;;;8.98;65.56
12349;BME280;5974;42.710;27.258;2023-04-07T05:37:38;100085.78;;;9.20;65.61
12349;BME280;5974;42.710;27.258;2023-04-07T05:40:07;100095.22;;;9.24;64.97
12349;BME280;5974;42.710;27.258;2023-04-07T05:42:34;100087.44;;;9.47;64.24
12349;BME280;5974;42.710;27.258;2023-04-07T05:45:00;100089.75;;;9.55;63.88
12349;BME280;5974;42.710;27.258;2023-04-07T05:47:29;100095.13;;;9.73;62.92
12349;BME280;5974;42.710;27.258;2023-04-07T05:49:56;100086.28;;;9.54;63.12
12349;BME280;5974;42.710;27.258;2023-04-07T05:52:22;100101.38;;;9.93;62.16
12349;BME280;5974;42.710;27.258;2023-04-07T05:54:49;100095.41;;;9.89;61.26
12349;BME280;5974;42.710;27.258;2023-04-07T05:57:16;100094.38;;;10.38;61.75
12349;BME280;5974;42.710;27.258;2023-04-07T05:59:43;100089.47;;;10.72;60.95
12349;BME280;5974;42.710;27.258;2023-04-07T06:02:12;100097.56;;;10.66;59.94
12349;BME280;5974;42.710;27.258;2023-04-07T06:04:40;100098.31;;;10.90;60.75
12349;BME280;5974;42.710;27.258;2023-04-07T06:07:07;100098.69;;;10.61;60.79
12349;BME280;5974;42.710;27.258;2023-04-07T06:09:34;100102.28;;;10.78;60.50
12349;BME280;5974;42.710;27.258;2023-04-07T06:12:01;100111.69;;;10.41;60.90
12349;BME280;5974;42.710;27.258;2023-04-07T06:14:29;100105.72;;;11.01;61.98
12349;BME280;5974;42.710;27.258;2023-04-07T06:16:56;100093.28;;;11.44;59.59
12349;BME280;5974;42.710;27.258;2023-04-07T06:19:23;100105.84;;;11.95;56.77
12349;BME280;5974;42.710;27.258;2023-04-07T06:21:53;100108.81;;;11.29;58.45
12349;BME280;5974;42.710;27.258;2023-04-07T06:24:20;100108.97;;;11.06;61.77
12349;BME280;5974;42.710;27.258;2023-04-07T06:26:47;100116.34;;;10.96;63.97
12349;BME280;5974;42.710;27.258;2023-04-07T06:29:14;100124.44;;;10.70;66.71
12349;BME280;5974;42.710;27.258;2023-04-07T06:31:41;100118.88;;;10.57;67.07
12349;BME280;5974;42.710;27.258;2023-04-07T06:34:08;100120.78;;;10.30;66.26
12349;BME280;5974;42.710;27.258;2023-04-07T06:36:35;100125.88;;;10.77;65.33
12349;BME280;5974;42.710;27.258;2023-04-07T06:39:04;100125.78;;;11.20;65.56
12349;BME280;5974;42.710;27.258;2023-04-07T06:41:31;100139.03;;;10.54;65.40
12349;BME280;5974;42.710;27.258;2023-04-07T06:43:57;100132.53;;;10.20;65.43
12349;BME280;5974;42.710;27.258;2023-04-07T06:46:24;100138.69;;;10.63;68.02
12349;BME280;5974;42.710;27.258;2023-04-07T06:48:52;100138.63;;;10.21;66.48
12349;BME280;5974;42.710;27.258;2023-04-07T06:51:18;100145.19;;;9.37;65.37
12349;BME280;5974;42.710;27.258;2023-04-07T06:53:45;100141.16;;;9.53;68.22
12349;BME280;5974;42.710;27.258;2023-04-07T06:56:14;100143.06;;;9.23;66.53
12349;BME280;5974;42.710;27.258;2023-04-07T06:58:41;100145.06;;;8.90;66.57
12349;BME280;5974;42.710;27.258;2023-04-07T07:01:08;100142.16;;;8.99;67.24
12349;BME280;5974;42.710;27.258;2023-04-07T07:03:34;100146.09;;;9.11;67.68
12349;BME280;5974;42.710;27.258;2023-04-07T07:06:01;100134.00;;;9.08;68.28
12349;BME280;5974;42.710;27.258;2023-04-07T07:08:28;100157.59;;;9.30;67.45
12349;BME280;5974;42.710;27.258;2023-04-07T07:10:56;100156.38;;;9.15;66.73
12349;BME280;5974;42.710;27.258;2023-04-07T07:13:25;100160.97;;;9.34;67.05
12349;BME280;5974;42.710;27.258;2023-04-07T07:15:52;100157.91;;;9.70;65.13
12349;BME280;5974;42.710;27.258;2023-04-07T07:18:20;100160.72;;;9.64;63.79
12349;BME280;5974;42.710;27.258;2023-04-07T07:20:47;100163.44;;;10.54;66.54
12349;BME280;5974;42.710;27.258;2023-04-07T07:23:15;100166.78;;;10.58;66.33
12349;BME280;5974;42.710;27.258;2023-04-07T07:25:42;100161.91;;;11.91;65.38
12349;BME280;5974;42.710;27.258;2023-04-07T07:28:08;100174.38;;;10.85;62.14
12349;BME280;5974;42.710;27.258;2023-04-07T07:30:38;100165.06;;;10.99;62.15
12349;BME280;5974;42.710;27.258;2023-04-07T07:33:05;100174.25;;;11.09;61.40
12349;BME280;5974;42.710;27.258;2023-04-07T07:35:32;100172.88;;;11.61;62.90
12349;BME280;5974;42.710;27.258;2023-04-07T07:38:00;100168.56;;;11.80;62.55
12349;BME280;5974;42.710;27.258;2023-04-07T07:40:27;100164.56;;;12.10;59.23
12349;BME280;5974;42.710;27.258;2023-04-07T07:42:53;100165.66;;;12.61;57.96
12349;BME280;5974;42.710;27.258;2023-04-07T07:45:20;100170.50;;;12.68;54.40
12349;BME280;5974;42.710;27.258;2023-04-07T07:47:49;100174.94;;;13.21;56.29
12349;BME280;5974;42.710;27.258;2023-04-07T07:50:16;100174.88;;;12.50;58.54
12349;BME280;5974;42.710;27.258;2023-04-07T07:52:43;100177.50;;;12.32;58.71
12349;BME280;5974;42.710;27.258;2023-04-07T07:55:10;100173.41;;;12.45;59.21
12349;BME280;5974;42.710;27.258;2023-04-07T07:57:37;100175.19;;;12.62;56.79
12349;BME280;5974;42.710;27.258;2023-04-07T08:00:05;100169.78;;;12.47;57.42
12349;BME280;5974;42.710;27.258;2023-04-07T08:02:32;100183.28;;;12.76;57.45
12349;BME280;5974;42.710;27.258;2023-04-07T08:05:02;100179.75;;;12.58;57.69
12349;BME280;5974;42.710;27.258;2023-04-07T08:07:29;100185.47;;;11.73;56.11
12349;BME280;5974;42.710;27.258;2023-04-07T08:09:56;100177.06;;;12.04;57.37
12349;BME280;5974;42.710;27.258;2023-04-07T08:12:23;100178.38;;;12.32;58.16
12349;BME280;5974;42.710;27.258;2023-04-07T08:14:50;100179.56;;;12.80;56.12
12349;BME280;5974;42.710;27.258;2023-04-07T08:17:17;100183.91;;;12.26;55.91
12349;BME280;5974;42.710;27.258;2023-04-07T08:19:44;100174.03;;;12.31;57.20
12349;BME280;5974;42.710;27.258;2023-04-07T08:22:12;100185.38;;;13.22;56.06
12349;BME280;5974;42.710;27.258;2023-04-07T08:24:39;100186.00;;;12.18;54.39
12349;BME280;5974;42.710;27.258;2023-04-07T08:27:06;100186.94;;;12.55;56.48
12349;BME280;5974;42.710;27.258;2023-04-07T08:29:32;100191.81;;;12.98;58.93
12349;BME280;5974;42.710;27.258;2023-04-07T08:31:59;100190.38;;;13.10;54.95
12349;BME280;5974;42.710;27.258;2023-04-07T08:34:26;100165.63;;;12.96;55.26
12349;BME280;5974;42.710;27.258;2023-04-07T08:36:53;100185.38;;;12.86;57.16
12349;BME280;5974;42.710;27.258;2023-04-07T08:39:21;100196.78;;;13.55;56.81
12349;BME280;5974;42.710;27.258;2023-04-07T08:41:50;100199.09;;;13.27;55.49
12349;BME280;5974;42.710;27.258;2023-04-07T08:44:20;100203.44;;;12.92;57.61
12349;BME280;5974;42.710;27.258;2023-04-07T08:46:49;100201.97;;;12.87;57.57
12349;BME280;5974;42.710;27.258;2023-04-07T08:49:16;100202.00;;;12.68;57.91
12349;BME280;5974;42.710;27.258;2023-04-07T08:51:44;100209.19;;;13.00;56.00
12349;BME280;5974;42.710;27.258;2023-04-07T08:54:14;100209.75;;;12.52;57.60
12349;BME280;5974;42.710;27.258;2023-04-07T08:56:44;100207.34;;;12.29;58.17
12349;BME280;5974;42.710;27.258;2023-04-07T08:59:13;100215.50;;;12.42;56.16
12349;BME280;5974;42.710;27.258;2023-04-07T09:01:40;100214.09;;;12.71;56.91
12349;BME280;5974;42.710;27.258;2023-04-07T09:04:08;100212.19;;;12.74;56.94
12349;BME280;5974;42.710;27.258;2023-04-07T09:06:36;100210.84;;;13.20;56.94
12349;BME280;5974;42.710;27.258;2023-04-07T09:09:04;100207.50;;;13.51;56.66
12349;BME280;5974;42.710;27.258;2023-04-07T09:11:34;100216.47;;;13.30;55.16
12349;BME280;5974;42.710;27.258;2023-04-07T09:14:02;100212.44;;;14.07;52.52
12349;BME280;5974;42.710;27.258;2023-04-07T09:16:29;100212.78;;;13.68;56.20
12349;BME280;5974;42.710;27.258;2023-04-07T09:18:56;100217.25;;;12.96;57.30
12349;BME280;5974;42.710;27.258;2023-04-07T09:21:24;100214.72;;;13.30;57.06
12349;BME280;5974;42.710;27.258;2023-04-07T09:23:51;100220.56;;;13.70;57.90
12349;BME280;5974;42.710;27.258;2023-04-07T09:26:20;100220.47;;;12.84;58.64
12349;BME280;5974;42.710;27.258;2023-04-07T09:28:50;100215.31;;;13.18;58.22
12349;BME280;5974;42.710;27.258;2023-04-07T09:31:18;100214.59;;;13.66;57.49
12349;BME280;5974;42.710;27.258;2023-04-07T09:33:47;100219.06;;;14.47;57.45
12349;BME280;5974;42.710;27.258;2023-04-07T09:36:14;100210.06;;;14.35;56.30
12349;BME280;5974;42.710;27.258;2023-04-07T09:38:42;100206.41;;;14.85;54.78
12349;BME280;5974;42.710;27.258;2023-04-07T09:41:11;100208.84;;;15.03;53.18
12349;BME280;5974;42.710;27.258;2023-04-07T09:43:39;100215.97;;;14.23;56.06
12349;BME280;5974;42.710;27.258;2023-04-07T09:46:11;100215.34;;;14.67;54.36
12349;BME280;5974;42.710;27.258;2023-04-07T09:48:39;100186.59;;;14.93;51.03
12349;BME280;5974;42.710;27.258;2023-04-07T09:51:08;100219.19;;;15.36;55.38
12349;BME280;5974;42.710;27.258;2023-04-07T09:53:41;100209.63;;;14.58;52.41
12349;BME280;5974;42.710;27.258;2023-04-07T09:56:08;100208.34;;;15.27;52.81
12349;BME280;5974;42.710;27.258;2023-04-07T09:58:37;100206.91;;;15.81;54.61
12349;BME280;5974;42.710;27.258;2023-04-07T10:01:07;100198.09;;;16.51;54.07
12349;BME280;5974;42.710;27.258;2023-04-07T10:03:35;100210.25;;;17.21;53.25
12349;BME280;5974;42.710;27.258;2023-04-07T10:06:04;100212.50;;;15.60;52.65
12349;BME280;5974;42.710;27.258;2023-04-07T10:08:34;100210.53;;;14.26;54.62
12349;BME280;5974;42.710;27.258;2023-04-07T10:11:01;100208.69;;;14.91;54.00
12349;BME280;5974;42.710;27.258;2023-04-07T10:13:29;100199.66;;;15.98;52.76
12349;BME280;5974;42.710;27.258;2023-04-07T10:15:57;100214.13;;;14.88;53.98
12349;BME280;5974;42.710;27.258;2023-04-07T10:18:27;100207.69;;;15.23;52.56
12349;BME280;5974;42.710;27.258;2023-04-07T10:20:56;100205.03;;;14.93;54.06
12349;BME280;5974;42.710;27.258;2023-04-07T10:23:30;100209.72;;;14.88;53.46
12349;BME280;5974;42.710;27.258;2023-04-07T10:26:00;100210.31;;;15.23;54.42
12349;BME280;5974;42.710;27.258;2023-04-07T10:28:29;100209.78;;;14.87;52.07
12349;BME280;5974;42.710;27.258;2023-04-07T10:30:57;100199.88;;;15.51;50.80
12349;BME280;5974;42.710;27.258;2023-04-07T10:33:46;100208.13;;;14.86;53.15
12349;BME280;5974;42.710;27.258;2023-04-07T10:36:14;100204.09;;;15.98;51.32
12349;BME280;5974;42.710;27.258;2023-04-07T10:39:20;100201.16;;;14.53;54.58
12349;BME280;5974;42.710;27.258;2023-04-07T10:41:48;100203.78;;;14.85;55.57
12349;BME280;5974;42.710;27.258;2023-04-07T10:44:45;100200.75;;;15.66;55.33
12349;BME280;5974;42.710;27.258;2023-04-07T10:47:12;100200.41;;;15.86;53.54
12349;BME280;5974;42.710;27.258;2023-04-07T10:50:15;100200.59;;;15.83;51.20
12349;BME280;5974;42.710;27.258;2023-04-07T10:52:44;100206.13;;;15.64;52.83
12349;BME280;5974;42.710;27.258;2023-04-07T10:55:36;100207.13;;;15.48;53.64
12349;BME280;5974;42.710;27.258;2023-04-07T10:58:19;100204.81;;;16.00;53.98
12349;BME280;5974;42.710;27.258;2023-04-07T11:01:18;100205.19;;;17.30;52.52
12349;BME280;5974;42.710;27.258;2023-04-07T11:03:54;100206.81;;;17.46;51.38
12349;BME280;5974;42.710;27.258;2023-04-07T11:06:22;100185.53;;;16.13;51.88
12349;BME280;5974;42.710;27.258;2023-04-07T11:08:49;100199.88;;;16.50;51.05
12349;BME280;5974;42.710;27.258;2023-04-07T11:11:35;100205.00;;;15.39;54.16
12349;BME280;5974;42.710;27.258;2023-04-07T11:14:03;100198.53;;;16.16;53.84
12349;BME280;5974;42.710;27.258;2023-04-07T11:16:39;100203.31;;;15.67;55.64
12349;BME280;5974;42.710;27.258;2023-04-07T11:19:06;100201.19;;;16.02;53.49
12349;BME280;5974;42.710;27.258;2023-04-07T11:21:33;100201.41;;;15.69;54.47
12349;BME280;5974;42.710;27.258;2023-04-07T11:24:01;100207.38;;;15.43;54.21
12349;BME280;5974;42.710;27.258;2023-04-07T11:26:28;100193.63;;;15.82;56.15
12349;BME280;5974;42.710;27.258;2023-04-07T11:28:57;100195.22;;;16.82;53.55
12349;BME280;5974;42.710;27.258;2023-04-07T11:31:25;100200.16;;;17.01;53.48
12349;BME280;5974;42.710;27.258;2023-04-07T11:33:52;100201.22;;;16.57;54.49
12349;BME280;5974;42.710;27.258;2023-04-07T11:36:28;100200.31;;;16.30;52.94
12349;BME280;5974;42.710;27.258;2023-04-07T11:38:55;100204.19;;;16.10;54.87
12349;BME280;5974;42.710;27.258;2023-04-07T11:41:23;100195.41;;;15.82;56.04
12349;BME280;5974;42.710;27.258;2023-04-07T11:44:07;100195.59;;;16.07;54.32
12349;BME280;5974;42.710;27.258;2023-04-07T11:46:34;100200.97;;;17.28;54.25
12349;BME280;5974;42.710;27.258;2023-04-07T11:49:09;100197.25;;;16.91;54.60
12349;BME280;5974;42.710;27.258;2023-04-07T11:51:36;100198.44;;;17.00;52.19
12349;BME280;5974;42.710;27.258;2023-04-07T11:54:03;100194.19;;;16.30;53.34
12349;BME280;5974;42.710;27.258;2023-04-07T11:56:41;100186.44;;;15.70;55.91
12349;BME280;5974;42.710;27.258;2023-04-07T11:59:17;100193.28;;;14.99;55.51
12349;BME280;5974;42.710;27.258;2023-04-07T12:01:45;100185.00;;;14.91;56.12
12349;BME280;5974;42.710;27.258;2023-04-07T12:04:13;100194.28;;;14.82;56.29
12349;BME280;5974;42.710;27.258;2023-04-07T12:06:40;100191.16;;;16.21;56.68
12349;BME280;5974;42.710;27.258;2023-04-07T12:09:08;100190.47;;;15.02;54.99
12349;BME280;5974;42.710;27.258;2023-04-07T12:11:35;100186.25;;;15.59;56.03
12349;BME280;5974;42.710;27.258;2023-04-07T12:14:03;100189.88;;;15.12;60.25
12349;BME280;5974;42.710;27.258;2023-04-07T12:16:36;100168.50;;;15.03;57.87
12349;BME280;5974;42.710;27.258;2023-04-07T12:19:03;100183.16;;;14.61;58.85
12349;BME280;5974;42.710;27.258;2023-04-07T12:21:30;100181.94;;;15.86;57.62
12349;BME280;5974;42.710;27.258;2023-04-07T12:23:57;100179.19;;;16.30;57.37
12349;BME280;5974;42.710;27.258;2023-04-07T12:26:24;100182.28;;;16.37;56.76
12349;BME280;5974;42.710;27.258;2023-04-07T12:28:51;100182.91;;;15.11;57.77
12349;BME280;5974;42.710;27.258;2023-04-07T12:31:18;100177.88;;;14.30;58.40
12349;BME280;5974;42.710;27.258;2023-04-07T12:33:46;100177.06;;;13.97;59.27
12349;BME280;5974;42.710;27.258;2023-04-07T12:36:13;100174.47;;;13.80;59.62
12349;BME280;5974;42.710;27.258;2023-04-07T12:38:40;100166.81;;;13.08;61.49
12349;BME280;5974;42.710;27.258;2023-04-07T12:41:07;100167.00;;;13.22;63.96
12349;BME280;5974;42.710;27.258;2023-04-07T12:43:34;100182.19;;;13.83;62.00
12349;BME280;5974;42.710;27.258;2023-04-07T12:46:01;100177.81;;;14.47;62.47
12349;BME280;5974;42.710;27.258;2023-04-07T12:48:28;100173.25;;;14.96;59.05
12349;BME280;5974;42.710;27.258;2023-04-07T12:50:56;100169.41;;;16.18;60.13
12349;BME280;5974;42.710;27.258;2023-04-07T12:53:23;100155.69;;;16.80;57.17
12349;BME280;5974;42.710;27.258;2023-04-07T12:55:50;100160.16;;;16.25;57.00
12349;BME280;5974;42.710;27.258;2023-04-07T12:58:17;100161.50;;;16.73;56.49
12349;BME280;5974;42.710;27.258;2023-04-07T13:00:44;100163.13;;;15.04;57.23
12349;BME280;5974;42.710;27.258;2023-04-07T13:03:12;100168.53;;;15.47;57.80
12349;BME280;5974;42.710;27.258;2023-04-07T13:05:39;100173.28;;;15.98;57.72